Time;durP1;ratioP1;P1;durP2;ratioP2;P2;SDS_P1;SDS_P2;PMS_P1;PMS_P2;Temp;Humidity;BMP_temperature;BMP_pressure;BME280_temperature;BME280_humidity;BME280_pressure;Samples;Min_cycle;Max_cycle;Signal;HPM_P1;HPM_P2
2023/06/23 02:13:14;;;;;;;7.40;6.20;;;;;;;16.84;73.92;99570.06;214042;1304;656454;-68
2023/06/23 02:18:21;;;;;;;12.10;6.30;;;;;;;16.81;73.86;99576.11;216912;1273;139114;-67
2023/06/23 02:23:26;;;;;;;8.20;7.30;;;;;;;16.79;73.86;99582.34;216123;1273;879808;-67
2023/06/23 02:28:32;;;;;;;5.40;4.90;;;;;;;16.78;74.19;99587.23;218362;1270;138682;-68
2023/06/23 02:33:38;;;;;;;7.10;6.00;;;;;;;16.83;74.45;99587.98;217218;1272;139189;-68
2023/06/23 02:38:44;;;;;;;6.40;5.80;;;;;;;16.88;74.47;99580.10;217589;1267;139550;-67
2023/06/23 02:43:54;;;;;;;9.90;6.10;;;;;;;16.91;74.60;99595.53;216426;1267;141170;-68
2023/06/23 02:49:10;;;;;;;7.60;6.70;;;;;;;16.95;75.02;99596.53;216436;1272;141033;-68
2023/06/23 02:54:18;;;;;;;8.60;6.60;;;;;;;17.05;75.00;99569.33;216663;1267;139340;-67
2023/06/23 02:59:25;;;;;;;7.20;5.60;;;;;;;17.15;75.05;99575.59;216830;1272;140350;-67
2023/06/23 03:04:32;;;;;;;6.90;6.20;;;;;;;17.21;75.28;99587.02;216577;1272;139856;-67
2023/06/23 03:09:38;;;;;;;7.50;6.40;;;;;;;17.27;75.50;99595.81;216278;1270;139400;-68
2023/06/23 03:14:43;;;;;;;10.60;6.10;;;;;;;17.32;75.62;99599.23;217338;1271;140366;-68
2023/06/23 03:19:59;;;;;;;7.80;6.20;;;;;;;17.41;75.78;99612.52;216385;1273;140647;-68
2023/06/23 03:25:09;;;;;;;6.00;5.20;;;;;;;17.53;75.71;99604.37;216520;1270;139148;-68
2023/06/23 03:30:25;;;;;;;9.90;5.50;;;;;;;17.66;75.88;99588.91;219039;1260;152192;-67
2023/06/23 03:35:37;;;;;;;6.50;5.90;;;;;;;17.82;75.95;99565.60;217443;1260;139654;-67
2023/06/23 03:40:53;;;;;;;7.60;6.60;;;;;;;17.94;75.76;99555.63;218250;1260;139193;-68
2023/06/23 03:46:03;;;;;;;7.90;5.70;;;;;;;18.06;76.06;99551.85;217388;1261;139275;-68
2023/06/23 03:51:11;;;;;;;7.80;7.10;;;;;;;18.20;76.00;99591.02;218870;1266;141595;-68
2023/06/23 03:56:18;;;;;;;13.90;7.40;;;;;;;18.31;76.00;99598.83;218873;1260;139558;-68
2023/06/23 04:01:26;;;;;;;8.20;7.30;;;;;;;18.43;75.90;99616.96;219951;1260;140867;-69
2023/06/23 04:06:34;;;;;;;10.10;6.90;;;;;;;18.52;75.66;99613.55;218467;1260;139254;-67
2023/06/23 04:11:42;;;;;;;10.60;7.50;;;;;;;18.62;75.51;99597.00;218697;1260;140843;-68
2023/06/23 04:16:50;;;;;;;9.40;6.40;;;;;;;18.68;75.63;99562.81;218445;1260;140997;-68
2023/06/23 04:21:58;;;;;;;6.80;6.20;;;;;;;18.68;75.61;99541.97;216936;1266;139043;-67
2023/06/23 04:27:06;;;;;;;10.40;7.40;;;;;;;18.64;75.53;99547.98;218243;1260;139984;-68
2023/06/23 04:32:13;;;;;;;8.10;7.30;;;;;;;18.61;75.26;99582.10;217103;1260;139660;-67
2023/06/23 04:37:30;;;;;;;7.80;7.00;;;;;;;18.55;75.00;99588.59;217464;1260;139427;-67
2023/06/23 04:43:23;;;;;;;10.30;7.90;;;;;;;18.53;75.19;99558.76;217381;1257;140544;-67
2023/06/23 04:48:33;;;;;;;7.00;6.30;;;;;;;18.53;75.19;99527.00;217636;1256;139644;-67
2023/06/23 04:53:46;;;;;;;11.70;6.40;;;;;;;18.50;74.99;99535.14;217884;1257;139024;-68
2023/06/23 04:58:55;;;;;;;19.90;15.20;;;;;;;18.46;74.85;99560.41;218024;1259;140685;-67
2023/06/23 05:04:03;;;;;;;16.20;12.90;;;;;;;18.43;74.52;99583.49;217797;1260;139646;-67
2023/06/23 05:09:11;;;;;;;9.10;7.10;;;;;;;18.47;74.51;99575.41;218565;1257;142042;-67
2023/06/23 05:14:19;;;;;;;11.10;8.40;;;;;;;18.45;74.07;99570.94;217677;1257;139630;-68
2023/06/23 05:19:27;;;;;;;14.90;7.70;;;;;;;18.46;74.02;99610.87;218186;1256;140019;-69
2023/06/23 05:24:34;;;;;;;12.30;7.10;;;;;;;18.44;73.81;99584.66;217603;1260;139925;-67
2023/06/23 05:29:44;;;;;;;9.60;8.60;;;;;;;18.33;73.60;99544.83;218282;1257;140804;-68
2023/06/23 05:34:51;;;;;;;7.90;6.30;;;;;;;18.25;73.55;99490.21;219711;1256;139776;-68
2023/06/23 05:39:58;;;;;;;11.90;8.30;;;;;;;18.28;73.43;99345.39;218530;1256;139650;-67
2023/06/23 05:45:03;;;;;;;10.20;6.60;;;;;;;18.35;73.31;99330.48;220675;1256;140254;-67
2023/06/23 05:50:19;;;;;;;11.70;8.10;;;;;;;18.34;73.45;99278.59;219250;1256;140520;-67
2023/06/23 05:55:28;;;;;;;8.20;7.30;;;;;;;18.38;73.28;99214.77;219630;1255;140158;-68
2023/06/23 06:00:48;;;;;;;11.10;7.40;;;;;;;18.43;73.40;99198.11;220230;1256;139292;-67
2023/06/23 06:05:55;;;;;;;9.40;7.70;;;;;;;18.48;73.46;99186.63;217912;1257;140340;-67
2023/06/23 06:11:02;;;;;;;17.30;8.20;;;;;;;18.52;73.58;99261.27;218041;1257;139388;-67
2023/06/23 06:16:09;;;;;;;7.80;6.40;;;;;;;18.54;74.16;99394.41;219471;1256;140901;-67
2023/06/23 06:21:16;;;;;;;7.00;5.60;;;;;;;18.45;74.49;99400.26;218595;1256;139506;-67
2023/06/23 06:26:24;;;;;;;6.90;6.20;;;;;;;18.39;75.20;99439.65;217714;1257;139996;-67
2023/06/23 06:31:32;;;;;;;8.70;5.80;;;;;;;18.36;75.81;99407.68;219054;1256;139974;-69
2023/06/23 06:36:40;;;;;;;10.90;5.50;;;;;;;18.33;76.42;99399.98;217881;1257;139740;-67
2023/06/23 06:41:46;;;;;;;7.40;5.00;;;;;;;18.23;76.96;99408.34;218152;1256;139373;-68
2023/06/23 06:46:52;;;;;;;8.40;6.20;;;;;;;18.17;77.63;99399.20;217931;1257;140766;-68
2023/06/23 06:51:59;;;;;;;10.50;5.90;;;;;;;18.11;78.05;99385.52;218251;1257;139668;-68
2023/06/23 06:57:06;;;;;;;9.60;6.60;;;;;;;18.10;78.59;99386.56;218392;1256;139743;-67
2023/06/23 07:02:13;;;;;;;10.70;6.00;;;;;;;18.09;79.00;99387.32;218393;1256;140024;-68
2023/06/23 07:07:19;;;;;;;9.40;8.40;;;;;;;18.15;79.28;99422.25;219229;1255;139994;-68
2023/06/23 07:12:26;;;;;;;13.00;9.50;;;;;;;18.20;79.40;99448.75;218122;1257;140270;-67
2023/06/23 07:17:30;;;;;;;7.40;6.60;;;;;;;18.23;79.61;99444.05;217981;1259;139436;-67
2023/06/23 07:22:36;;;;;;;8.30;7.40;;;;;;;18.30;79.75;99449.25;218262;1256;141648;-67
2023/06/23 07:27:40;;;;;;;9.00;6.00;;;;;;;18.36;79.87;99444.45;217886;1257;139227;-67
2023/06/23 07:32:47;;;;;;;8.80;6.20;;;;;;;18.44;79.83;99441.36;218400;1256;140631;-67
2023/06/23 07:37:51;;;;;;;6.10;5.30;;;;;;;18.51;79.85;99438.13;218074;1258;139718;-68
2023/06/23 07:42:56;;;;;;;5.60;5.00;;;;;;;18.57;79.80;99444.73;219822;1256;139207;-68
2023/06/23 07:48:00;;;;;;;9.80;6.20;;;;;;;18.63;79.87;99443.80;220236;1256;139798;-68
2023/06/23 07:53:03;;;;;;;13.60;6.60;;;;;;;18.67;79.71;99440.38;219419;1256;139640;-68
2023/06/23 07:58:07;;;;;;;10.90;6.60;;;;;;;18.74;79.76;99439.34;218603;1256;141180;-67
2023/06/23 08:03:11;;;;;;;10.30;6.60;;;;;;;18.80;79.58;99441.29;220755;1256;140040;-68
2023/06/23 08:08:14;;;;;;;13.00;7.90;;;;;;;18.85;79.76;99461.91;218626;1257;140376;-68
2023/06/23 08:13:18;;;;;;;8.50;7.70;;;;;;;18.89;79.65;99480.59;220399;1256;139917;-68
2023/06/23 08:18:22;;;;;;;7.80;7.10;;;;;;;18.88;79.55;99477.95;220090;1256;140424;-68
2023/06/23 08:23:27;;;;;;;15.20;8.30;;;;;;;18.90;79.63;99492.56;219081;1256;139595;-66
2023/06/23 08:28:35;;;;;;;9.10;7.00;;;;;;;18.97;79.84;99500.10;219509;1256;139250;-67
2023/06/23 08:33:40;;;;;;;9.90;7.20;;;;;;;19.09;79.94;99507.47;219509;1255;139099;-66
2023/06/23 08:38:44;;;;;;;11.90;7.20;;;;;;;19.18;80.00;99509.27;219989;1256;139185;-67
2023/06/23 08:43:49;;;;;;;11.50;6.50;;;;;;;19.24;79.88;99508.62;218813;1255;139349;-67
2023/06/23 08:48:57;;;;;;;9.60;7.00;;;;;;;19.34;79.95;99502.31;218126;1255;139795;-69
2023/06/23 08:54:01;;;;;;;7.10;6.10;;;;;;;19.55;80.16;99503.98;218426;1256;140837;-66
2023/06/23 08:59:05;;;;;;;7.80;6.20;;;;;;;19.76;80.01;99506.11;218195;1256;139387;-69
2023/06/23 09:04:10;;;;;;;9.20;6.30;;;;;;;20.02;80.03;99516.23;218542;1256;139285;-66
2023/06/23 09:09:16;;;;;;;7.90;6.90;;;;;;;20.14;79.56;99523.66;218629;1256;140841;-66
2023/06/23 09:14:22;;;;;;;6.60;5.80;;;;;;;20.24;79.39;99526.91;218839;1254;139495;-70
2023/06/23 09:19:27;;;;;;;7.80;7.00;;;;;;;20.64;79.71;99532.84;218293;1255;139380;-66
2023/06/23 09:24:43;;;;;;;8.40;7.30;;;;;;;21.02;79.26;99533.00;219145;1257;139263;-67
2023/06/23 09:30:00;;;;;;;9.50;6.70;;;;;;;21.42;78.53;99532.67;218742;1255;140222;-67
2023/06/23 09:35:05;;;;;;;6.00;5.60;;;;;;;21.77;77.94;99536.44;217836;1259;139163;-70
2023/06/23 09:40:11;;;;;;;6.50;5.90;;;;;;;22.14;77.40;99539.84;218715;1256;141582;-66
2023/06/23 09:45:17;;;;;;;;;;;;;;;22.63;76.87;99545.60;218739;1255;139726;-67
2023/06/23 09:50:25;;;;;;;;;;;;;;;23.15;76.26;99553.30;219558;1255;125584;-68
2023/06/23 09:55:32;;;;;;;7.10;6.00;;;;;;;23.54;75.42;99552.56;219255;1255;136912;-67
2023/06/23 10:00:38;;;;;;;9.20;5.10;;;;;;;23.70;73.71;99557.48;220516;1256;140125;-67
2023/06/23 10:05:44;;;;;;;11.90;6.10;;;;;;;23.81;72.78;99559.71;220028;1255;140496;-66
2023/06/23 10:10:50;;;;;;;9.00;5.90;;;;;;;23.96;71.64;99554.39;220197;1256;139319;-67
2023/06/23 10:15:56;;;;;;;;;;;;;;;24.10;70.85;99565.23;220580;1255;139283;-67
2023/06/23 10:21:02;;;;;;;9.20;7.10;;;;;;;23.97;70.24;99575.27;219677;1255;125621;-67
2023/06/23 10:26:12;;;;;;;18.10;7.40;;;;;;;23.84;70.03;99584.08;220262;1255;139584;-66
2023/06/23 10:31:23;;;;;;;9.30;5.80;;;;;;;23.80;70.14;99586.05;219703;1256;140624;-67
2023/06/23 10:36:34;;;;;;;14.90;7.70;;;;;;;23.94;70.05;99581.45;219892;1255;139889;-68
2023/06/23 10:41:51;;;;;;;15.10;6.50;;;;;;;24.11;69.84;99579.50;218013;1257;140547;-66
2023/06/23 10:47:05;;;;;;;11.70;7.40;;;;;;;24.41;69.83;99578.79;217829;1257;139529;-66
2023/06/23 10:52:14;;;;;;;13.10;8.80;;;;;;;24.46;68.86;99581.14;218465;1257;139916;-67
2023/06/23 10:57:19;;;;;;;15.40;8.00;;;;;;;24.73;69.17;99578.81;218142;1257;139993;-66
2023/06/23 11:02:53;;;;;;;13.20;7.90;;;;;;;25.18;69.05;99568.10;218668;1256;247276;-66
2023/06/23 11:08:04;;;;;;;9.50;8.30;;;;;;;25.47;68.32;99570.44;218436;1255;139710;-67
2023/06/23 11:16:04;;;;;;;10.70;9.50;;;;;;;25.78;67.58;99571.44;213963;1297;635716;-69
2023/06/23 11:21:38;;;;;;;12.30;10.30;;;;;;;25.86;67.34;99575.83;217639;1268;140189;-68
2023/06/23 11:27:00;;;;;;;12.40;11.10;;;;;;;25.97;66.66;99576.20;218504;1257;504960;-68
2023/06/23 11:32:16;;;;;;;13.90;11.40;;;;;;;25.77;66.08;99584.05;217679;1257;139745;-68
2023/06/23 11:37:38;;;;;;;18.90;11.50;;;;;;;25.74;66.34;99584.98;218880;1257;140901;-68
2023/06/23 11:42:55;;;;;;;12.50;10.80;;;;;;;25.55;65.74;99577.89;217970;1259;139449;-67
2023/06/23 11:48:18;;;;;;;17.20;11.50;;;;;;;25.32;66.31;99575.70;219157;1257;139243;-68
2023/06/23 11:53:25;;;;;;;13.40;11.20;;;;;;;25.33;66.49;99573.95;219140;1260;140127;-68
2023/06/23 11:58:32;;;;;;;15.80;10.80;;;;;;;25.38;66.60;99567.63;219834;1261;139919;-68
2023/06/23 12:03:46;;;;;;;14.10;11.00;;;;;;;25.28;66.39;99564.89;219415;1261;140007;-68
2023/06/23 12:08:54;;;;;;;13.60;12.10;;;;;;;24.97;66.27;99566.96;220008;1260;140073;-68
2023/06/23 12:14:05;;;;;;;16.10;12.20;;;;;;;24.97;67.24;99573.12;219762;1261;139919;-68
2023/06/23 12:19:12;;;;;;;14.20;12.70;;;;;;;25.03;67.13;99570.33;218310;1260;139964;-67
2023/06/23 12:24:27;;;;;;;15.60;13.50;;;;;;;24.99;67.13;99569.68;219149;1261;140420;-67
2023/06/23 12:29:37;;;;;;;16.40;14.80;;;;;;;24.82;66.98;99583.68;218651;1260;139514;-67
2023/06/23 12:34:55;;;;;;;15.70;14.00;;;;;;;24.79;67.61;99579.20;217558;1263;141371;-67
2023/06/23 12:40:12;;;;;;;20.70;13.40;;;;;;;25.07;67.88;99575.21;217587;1263;140503;-67
2023/06/23 12:45:56;;;;;;;12.40;11.10;;;;;;;25.62;67.76;99558.57;217724;1260;141137;-69
2023/06/23 12:51:48;;;;;;;12.20;10.70;;;;;;;26.01;67.11;99562.20;217184;1261;224821;-69
2023/06/23 12:57:03;;;;;;;9.90;8.90;;;;;;;26.00;65.99;99565.20;217736;1262;139723;-67
2023/06/23 13:02:18;;;;;;;11.10;9.90;;;;;;;26.20;65.72;99571.42;218151;1261;141562;-67
2023/06/23 13:07:24;;;;;;;10.20;9.10;;;;;;;26.55;64.97;99577.95;217255;1260;139845;-67
2023/06/23 13:12:29;;;;;;;10.10;9.10;;;;;;;26.88;64.61;99590.88;217663;1260;139137;-69
2023/06/23 13:17:35;;;;;;;;;;;;;;;27.07;63.72;99595.67;217594;1261;140136;-67
2023/06/23 13:22:40;;;;;;;11.20;9.30;;;;;;;26.97;62.89;99595.46;217971;1263;125579;-69
2023/06/23 13:27:46;;;;;;;10.60;9.70;;;;;;;26.75;62.48;99600.04;217548;1262;139794;-66
2023/06/23 13:32:53;;;;;;;10.00;8.60;;;;;;;26.62;62.58;99594.09;218543;1261;140195;-65
2023/06/23 13:38:02;;;;;;;14.10;8.60;;;;;;;26.61;62.41;99597.12;218311;1261;139313;-68
2023/06/23 13:43:08;;;;;;;11.70;9.00;;;;;;;26.63;61.99;99594.36;217348;1263;139965;-67
2023/06/23 13:48:18;;;;;;;13.00;10.10;;;;;;;26.42;61.75;99592.19;217578;1259;139478;-64
2023/06/23 13:53:26;;;;;;;12.50;11.20;;;;;;;26.12;61.95;99596.75;219799;1262;139507;-65
2023/06/23 13:58:33;;;;;;;12.80;11.40;;;;;;;26.00;62.12;99597.44;217798;1262;139907;-64
2023/06/23 14:03:40;;;;;;;14.00;12.40;;;;;;;26.00;62.29;99592.76;219934;1261;139353;-66
2023/06/23 14:08:48;;;;;;;14.60;13.00;;;;;;;26.05;62.21;99583.48;219238;1261;140164;-65
2023/06/23 14:13:55;;;;;;;13.40;12.10;;;;;;;26.18;62.27;99592.80;218378;1263;140121;-66
2023/06/23 14:19:07;;;;;;;17.50;11.80;;;;;;;26.39;61.80;99600.89;218911;1262;142276;-68
2023/06/23 14:24:13;;;;;;;13.30;11.90;;;;;;;26.71;61.33;99608.36;218983;1261;139827;-66
2023/06/23 14:29:19;;;;;;;13.30;11.90;;;;;;;26.58;60.47;99620.54;218620;1259;140532;-68
2023/06/23 14:34:28;;;;;;;11.80;10.50;;;;;;;26.41;60.20;99621.18;218031;1259;139928;-65
2023/06/23 14:39:37;;;;;;;14.10;12.70;;;;;;;26.39;60.06;99629.63;219018;1260;139629;-65
2023/06/23 14:44:50;;;;;;;13.70;10.40;;;;;;;26.22;59.65;99639.64;218006;1262;139824;-66
2023/06/23 14:49:57;;;;;;;12.90;11.80;;;;;;;26.10;59.96;99646.33;217228;1259;139992;-67
2023/06/23 14:55:06;;;;;;;12.50;11.30;;;;;;;26.01;59.69;99650.08;217499;1261;139281;-68
2023/06/23 15:00:20;;;;;;;13.10;11.80;;;;;;;25.73;59.70;99653.73;217086;1262;139007;-66
2023/06/23 15:05:28;;;;;;;15.50;12.70;;;;;;;25.52;59.94;99671.36;218309;1260;138796;-67
2023/06/23 15:10:35;;;;;;;15.60;14.20;;;;;;;25.39;60.38;99682.35;218045;1259;139482;-72
2023/06/23 15:15:42;;;;;;;15.90;14.20;;;;;;;25.26;60.43;99683.52;218613;1262;140682;-69
2023/06/23 15:20:53;;;;;;;15.30;14.00;;;;;;;25.16;60.48;99682.83;218410;1263;140330;-69
2023/06/23 15:25:59;;;;;;;15.80;13.90;;;;;;;25.11;60.60;99687.09;218896;1261;140518;-68
2023/06/23 15:31:05;;;;;;;16.00;14.50;;;;;;;25.10;60.66;99685.64;218796;1260;139662;-68
2023/06/23 15:36:18;;;;;;;22.30;16.50;;;;;;;25.13;60.70;99684.97;217966;1262;138921;-68
2023/06/23 15:41:29;;;;;;;18.10;16.30;;;;;;;25.21;61.35;99694.25;218983;1259;139135;-66
2023/06/23 15:46:40;;;;;;;17.50;15.80;;;;;;;25.20;61.64;99689.54;217446;1263;139858;-66
2023/06/23 15:51:57;;;;;;;21.60;18.30;;;;;;;25.14;61.75;99690.39;220079;1260;140146;-67
2023/06/23 15:57:12;;;;;;;21.90;19.30;;;;;;;25.01;61.87;99696.61;219856;1260;139749;-70
2023/06/23 16:02:30;;;;;;;24.20;20.00;;;;;;;24.82;62.22;99708.05;218979;1260;140803;-69
2023/06/23 16:07:43;;;;;;;20.90;18.80;;;;;;;24.66;62.41;99710.34;219108;1260;139714;-70
2023/06/23 16:12:51;;;;;;;20.80;18.30;;;;;;;24.56;62.82;99697.75;220000;1262;142355;-68
2023/06/23 16:18:00;;;;;;;20.30;18.20;;;;;;;24.43;62.93;99701.47;220008;1259;140434;-67
2023/06/23 16:23:05;;;;;;;;;;;;;;;24.26;63.00;99705.33;218761;1262;140568;-67
2023/06/23 16:28:11;;;;;;;21.80;17.50;;;;;;;23.99;63.33;99700.70;217502;1259;125690;-67
2023/06/23 16:33:17;;;;;;;22.30;19.40;;;;;;;23.85;63.94;99694.88;217605;1263;139874;-67
2023/06/23 16:38:25;;;;;;;20.80;16.80;;;;;;;23.80;64.28;99695.38;218820;1260;139557;-66
2023/06/23 16:43:34;;;;;;;19.80;16.20;;;;;;;23.79;64.56;99701.02;218472;1262;139508;-68
2023/06/23 16:48:41;;;;;;;20.60;17.20;;;;;;;23.72;64.50;99701.11;218135;1259;140019;-66
2023/06/23 16:53:53;;;;;;;18.00;14.80;;;;;;;23.64;64.47;99702.81;216897;1262;139882;-70
2023/06/23 16:59:12;;;;;;;17.50;15.70;;;;;;;23.62;64.66;99688.34;217834;1259;140418;-68
2023/06/23 17:04:24;;;;;;;16.20;14.50;;;;;;;23.52;64.88;99686.85;218106;1263;139832;-68
2023/06/23 17:09:31;;;;;;;17.80;14.10;;;;;;;23.43;65.01;99704.31;217652;1261;139796;-67
2023/06/23 17:14:38;;;;;;;17.50;13.40;;;;;;;23.41;65.17;99705.23;217095;1263;140013;-67
2023/06/23 17:19:44;;;;;;;17.50;14.90;;;;;;;23.32;65.27;99689.77;217516;1259;139369;-67
2023/06/23 17:24:51;;;;;;;15.80;13.80;;;;;;;23.12;65.33;99699.79;217196;1263;140743;-68
2023/06/23 17:29:58;;;;;;;16.60;14.20;;;;;;;22.93;65.82;99701.84;217062;1261;139586;-69
2023/06/23 17:35:04;;;;;;;16.50;12.50;;;;;;;22.79;66.33;99700.88;218625;1263;140633;-66
2023/06/23 17:40:09;;;;;;;14.20;12.90;;;;;;;22.67;66.40;99704.52;218495;1262;141251;-65
2023/06/23 17:45:13;;;;;;;14.80;12.90;;;;;;;22.50;66.73;99707.01;217871;1262;139688;-64
2023/06/23 17:50:18;;;;;;;15.60;12.70;;;;;;;22.33;67.23;99697.60;218409;1262;140463;-68
2023/06/23 17:55:26;;;;;;;16.00;12.60;;;;;;;22.13;67.44;99699.55;218201;1263;140966;-71
2023/06/23 18:00:31;;;;;;;14.40;12.90;;;;;;;21.98;67.88;99693.08;217458;1263;140179;-72
2023/06/23 18:05:38;;;;;;;14.40;13.00;;;;;;;21.83;68.14;99683.08;218546;1260;140960;-68
2023/06/23 18:10:46;;;;;;;17.90;13.40;;;;;;;21.70;68.56;99694.20;219178;1260;142541;-68
2023/06/23 18:15:55;;;;;;;14.50;12.70;;;;;;;21.59;68.97;99695.19;219149;1260;139880;-70
2023/06/23 18:21:01;;;;;;;16.10;14.50;;;;;;;21.53;69.43;99711.83;217847;1260;140572;-70
2023/06/23 18:26:06;;;;;;;14.50;13.00;;;;;;;21.45;69.67;99735.91;217899;1263;139884;-70
2023/06/23 18:31:12;;;;;;;19.20;13.80;;;;;;;21.37;69.96;99742.42;218416;1264;140821;-70
2023/06/23 18:36:19;;;;;;;17.80;13.80;;;;;;;21.25;70.29;99741.27;217176;1261;141321;-70
2023/06/23 18:41:24;;;;;;;17.10;13.00;;;;;;;21.15;70.66;99739.60;218960;1263;140995;-68
2023/06/23 18:46:30;;;;;;;14.50;13.00;;;;;;;21.05;71.02;99740.12;217332;1263;140739;-71
2023/06/23 18:51:38;;;;;;;13.80;12.10;;;;;;;20.94;71.23;99762.19;217439;1263;139972;-69
2023/06/23 18:56:52;;;;;;;12.70;11.40;;;;;;;20.85;71.53;99782.23;217184;1263;139575;-68
2023/06/23 19:02:02;;;;;;;12.70;11.30;;;;;;;20.75;71.82;99794.76;217066;1265;139778;-68
2023/06/23 19:07:11;;;;;;;11.30;9.20;;;;;;;20.68;72.03;99816.49;217561;1257;140293;-67
2023/06/23 19:12:16;;;;;;;13.70;9.00;;;;;;;20.61;72.02;99831.97;217755;1257;139702;-68
2023/06/23 19:17:22;;;;;;;8.90;8.00;;;;;;;20.54;72.10;99827.42;218203;1257;140024;-70
2023/06/23 19:22:35;;;;;;;8.70;7.90;;;;;;;20.47;72.21;99829.76;217263;1261;140605;-68
2023/06/23 19:27:44;;;;;;;11.60;7.60;;;;;;;20.41;72.28;99834.42;217956;1257;141237;-68
2023/06/23 19:32:50;;;;;;;7.70;6.70;;;;;;;20.33;72.43;99850.23;217605;1260;139349;-69
2023/06/23 19:37:58;;;;;;;8.40;6.80;;;;;;;20.24;72.25;99855.08;218376;1258;140380;-71
2023/06/23 19:43:05;;;;;;;7.50;6.00;;;;;;;20.17;72.31;99850.39;217697;1257;141696;-68
2023/06/23 19:48:12;;;;;;;9.80;4.90;;;;;;;20.10;72.06;99851.64;219786;1257;139419;-67
2023/06/23 19:53:18;;;;;;;6.50;5.70;;;;;;;20.04;72.02;99850.31;219565;1257;140382;-67
2023/06/23 19:58:23;;;;;;;10.90;5.00;;;;;;;19.96;71.83;99846.20;219045;1256;140097;-67
2023/06/23 20:03:31;;;;;;;6.10;5.40;;;;;;;19.91;71.69;99850.89;218365;1257;141694;-68
2023/06/23 20:08:46;;;;;;;7.70;5.00;;;;;;;19.86;71.64;99851.24;220228;1257;140613;-68
2023/06/23 20:13:51;;;;;;;8.60;5.00;;;;;;;19.82;71.63;99851.58;219282;1257;140682;-69
2023/06/23 20:18:56;;;;;;;6.30;4.70;;;;;;;19.78;71.44;99851.58;219873;1257;139833;-69
2023/06/23 20:24:06;;;;;;;7.80;4.00;;;;;;;19.71;71.28;99841.39;217553;1257;139845;-70
2023/06/23 20:29:16;;;;;;;6.40;5.00;;;;;;;19.66;71.45;99846.11;218644;1257;139066;-68
2023/06/23 20:34:24;;;;;;;7.00;5.60;;;;;;;19.62;71.40;99851.35;217544;1257;140111;-69
2023/06/23 20:39:35;;;;;;;7.60;5.50;;;;;;;19.60;71.61;99860.46;217463;1258;139787;-69
2023/06/23 20:44:43;;;;;;;6.10;5.10;;;;;;;19.57;71.66;99891.34;218031;1257;141092;-71
2023/06/23 20:49:57;;;;;;;6.40;5.20;;;;;;;19.50;71.82;99912.67;217573;1257;140072;-70
2023/06/23 20:55:06;;;;;;;6.80;5.70;;;;;;;19.48;72.06;99909.16;218364;1257;142499;-67
2023/06/23 21:00:13;;;;;;;8.50;5.30;;;;;;;19.44;72.10;99918.62;217526;1257;140070;-68
2023/06/23 21:05:18;;;;;;;5.90;5.30;;;;;;;19.40;72.29;99921.63;217702;1257;139902;-71
2023/06/23 21:10:22;;;;;;;7.70;5.30;;;;;;;19.36;72.46;99919.08;218241;1257;140532;-69
2023/06/23 21:15:32;;;;;;;6.00;5.40;;;;;;;19.32;72.55;99914.64;218100;1256;139494;-70
2023/06/23 21:20:37;;;;;;;8.10;6.50;;;;;;;19.26;72.57;99916.44;218121;1257;140239;-70
2023/06/23 21:25:41;;;;;;;14.00;7.00;;;;;;;19.23;72.59;99923.41;217522;1257;141248;-70
2023/06/23 21:30:46;;;;;;;6.00;5.30;;;;;;;19.17;72.71;99927.95;218255;1257;141053;-71
2023/06/23 21:35:52;;;;;;;8.10;6.30;;;;;;;19.09;72.60;99923.49;217660;1258;139320;-70
2023/06/23 21:41:00;;;;;;;6.30;5.70;;;;;;;19.04;72.88;99922.23;217524;1257;140544;-71
2023/06/23 21:46:08;;;;;;;6.30;5.70;;;;;;;19.00;72.79;99924.39;219369;1257;139511;-71
2023/06/23 21:51:16;;;;;;;6.20;5.70;;;;;;;18.95;72.84;99927.70;218298;1257;151545;-70
2023/06/23 21:56:21;;;;;;;9.10;6.90;;;;;;;18.91;72.90;99924.98;218102;1257;141872;-69
2023/06/23 22:01:27;;;;;;;8.40;5.80;;;;;;;18.87;72.89;99927.61;220049;1257;139809;-70
2023/06/23 22:06:33;;;;;;;7.60;5.70;;;;;;;18.83;72.77;99923.80;220160;1257;139709;-70
2023/06/23 22:11:37;;;;;;;8.60;5.30;;;;;;;18.80;72.91;99912.28;219691;1257;140094;-70
2023/06/23 22:16:43;;;;;;;6.00;5.40;;;;;;;18.76;72.81;99915.60;218843;1257;140673;-69
2023/06/23 22:21:49;;;;;;;5.80;5.10;;;;;;;18.71;72.76;99918.83;217593;1257;140782;-69
2023/06/23 22:26:55;;;;;;;7.20;4.90;;;;;;;18.64;72.84;99927.98;218553;1257;140070;-69
2023/06/23 22:32:00;;;;;;;10.40;5.70;;;;;;;18.60;72.98;99934.80;217853;1258;139645;-67
2023/06/23 22:37:06;;;;;;;5.20;4.70;;;;;;;18.57;73.04;99949.35;217371;1257;139524;-67
2023/06/23 22:42:12;;;;;;;5.80;4.40;;;;;;;18.52;73.21;99959.14;217445;1257;139549;-66
2023/06/23 22:47:20;;;;;;;6.00;5.10;;;;;;;18.47;73.11;99966.73;217480;1256;139544;-67
2023/06/23 22:52:30;;;;;;;6.60;4.90;;;;;;;18.43;73.31;99974.86;218024;1257;140003;-70
2023/06/23 22:57:34;;;;;;;5.50;4.80;;;;;;;18.40;73.69;99979.45;218125;1257;141672;-69
2023/06/23 23:02:39;;;;;;;8.00;5.00;;;;;;;18.38;73.67;99976.93;217403;1257;139907;-70
2023/06/23 23:07:47;;;;;;;7.40;6.00;;;;;;;18.34;73.71;99980.42;217868;1256;139830;-71
2023/06/23 23:12:51;;;;;;;5.60;4.60;;;;;;;18.30;73.78;99993.36;217421;1257;141092;-70
2023/06/23 23:17:55;;;;;;;6.60;5.00;;;;;;;18.28;73.62;99996.72;218363;1257;140331;-72
2023/06/23 23:23:00;;;;;;;6.40;5.20;;;;;;;18.25;73.59;99991.82;218701;1257;139587;-71
2023/06/23 23:28:05;;;;;;;6.00;4.80;;;;;;;18.22;73.61;99986.48;218151;1257;610222;-70
2023/06/23 23:33:11;;;;;;;4.00;3.60;;;;;;;18.18;73.49;99979.50;219222;1257;139759;-71
2023/06/23 23:38:19;;;;;;;9.50;5.10;;;;;;;18.13;73.35;99967.33;217587;1259;141343;-69
2023/06/23 23:43:24;;;;;;;6.90;5.00;;;;;;;18.08;73.28;99962.82;219158;1257;139331;-70
2023/06/23 23:48:28;;;;;;;10.00;4.90;;;;;;;18.04;73.24;99966.73;218653;1258;141195;-70
2023/06/23 23:53:32;;;;;;;5.50;4.50;;;;;;;18.01;73.19;99970.97;217700;1260;139639;-71
2023/06/23 23:58:37;;;;;;;8.20;5.60;;;;;;;17.99;73.39;99973.19;220171;1257;140866;-72
